createdAt,value
2018-12-13T00:00:36.505Z,35.73
2018-12-13T00:03:04.821Z,36.50
2018-12-13T00:05:33.093Z,32.50
2018-12-13T00:08:01.307Z,36.90
2018-12-13T00:10:28.665Z,36.90
2018-12-13T00:12:57.147Z,35.47
2018-12-13T00:15:27.348Z,37.30
2018-12-13T00:17:54.668Z,34.73
2018-12-13T00:20:21.955Z,35.80
2018-12-13T00:22:50.139Z,35.63
2018-12-13T00:25:17.506Z,42.50
2018-12-13T00:27:48.775Z,36.40
2018-12-13T00:30:17.061Z,32.40
2018-12-13T00:32:46.344Z,40.80
2018-12-13T00:35:14.689Z,34.80
2018-12-13T00:37:47.926Z,39.23
2018-12-13T00:40:16.200Z,36.77
2018-12-13T00:42:44.442Z,40.27
2018-12-13T00:45:12.768Z,36.53
2018-12-13T00:47:42.156Z,39.70
2018-12-13T00:50:09.443Z,34.53
2018-12-13T00:52:40.172Z,38.93
2018-12-13T00:55:07.460Z,34.63
2018-12-13T00:57:34.794Z,32.00
2018-12-13T01:00:03.645Z,37.60
2018-12-13T01:02:31.955Z,36.40
2018-12-13T01:05:00.200Z,35.73
2018-12-13T01:07:27.528Z,34.23
2018-12-13T01:10:03.384Z,32.30
2018-12-13T01:12:31.681Z,31.87
2018-12-13T01:14:58.966Z,32.80
2018-12-13T01:17:27.257Z,33.90
2018-12-13T01:19:55.456Z,33.50
2018-12-13T01:22:23.723Z,31.40
2018-12-13T01:24:52.177Z,35.97
2018-12-13T01:27:21.432Z,35.67
2018-12-13T01:29:49.720Z,35.50
2018-12-13T01:32:18.018Z,38.60
2018-12-13T01:34:47.206Z,31.40
2018-12-13T01:37:15.460Z,33.67
2018-12-13T01:39:43.708Z,38.47
2018-12-13T01:42:12.002Z,31.70
2018-12-13T01:44:40.290Z,38.67
2018-12-13T01:47:07.600Z,36.17
2018-12-13T01:49:35.771Z,36.70
2018-12-13T01:52:03.121Z,36.77
2018-12-13T01:54:31.409Z,37.30
2018-12-13T01:56:59.597Z,33.30
2018-12-13T01:59:26.924Z,40.50
2018-12-13T02:01:54.279Z,37.73
2018-12-13T02:04:21.620Z,40.13
2018-12-13T02:06:48.924Z,42.17
2018-12-13T02:09:17.190Z,36.97
2018-12-13T02:11:45.368Z,38.57
2018-12-13T02:14:13.713Z,47.90
2018-12-13T02:16:41.941Z,39.30
2018-12-13T02:19:10.265Z,39.93
2018-12-13T02:21:37.539Z,40.40
2018-12-13T02:24:05.914Z,32.23
2018-12-13T02:26:33.225Z,40.13
2018-12-13T02:29:01.526Z,41.80
2018-12-13T02:31:28.849Z,40.03
2018-12-13T02:33:58.177Z,42.10
2018-12-13T02:36:26.420Z,46.03
2018-12-13T02:38:55.651Z,43.00
2018-12-13T02:41:23.932Z,43.53
2018-12-13T02:43:51.247Z,47.73
2018-12-13T02:46:20.524Z,41.07
2018-12-13T02:48:47.811Z,49.70
2018-12-13T02:51:15.144Z,54.03
2018-12-13T02:53:42.590Z,47.00
2018-12-13T02:56:10.882Z,52.33
2018-12-13T02:58:38.209Z,54.80
2018-12-13T03:01:05.574Z,49.70
2018-12-13T03:03:33.765Z,51.40
2018-12-13T03:06:01.158Z,52.33
2018-12-13T03:08:28.457Z,52.07
2018-12-13T03:10:56.772Z,54.37
2018-12-13T03:13:24.117Z,55.13
2018-12-13T03:15:52.381Z,51.50
2018-12-13T03:18:19.738Z,59.13
2018-12-13T03:20:47.054Z,52.47
2018-12-13T03:23:14.340Z,46.10
2018-12-13T03:25:43.619Z,47.97
2018-12-13T03:28:10.972Z,46.73
2018-12-13T03:30:38.348Z,48.73
2018-12-13T03:33:05.711Z,55.80
2018-12-13T03:35:33.082Z,46.07
2018-12-13T03:38:00.363Z,48.37
2018-12-13T03:40:27.693Z,51.60
2018-12-13T03:42:56.018Z,52.67
2018-12-13T03:45:23.370Z,53.90
2018-12-13T03:47:51.581Z,49.90
2018-12-13T03:50:19.922Z,46.90
2018-12-13T03:52:52.158Z,50.50
2018-12-13T03:55:19.485Z,51.23
2018-12-13T03:57:46.829Z,49.33
2018-12-13T04:00:14.177Z,53.23
2018-12-13T04:02:42.473Z,53.13
2018-12-13T04:05:09.766Z,48.90
2018-12-13T04:07:37.971Z,44.70
2018-12-13T04:10:06.310Z,50.97
2018-12-13T04:12:35.507Z,49.87
2018-12-13T04:15:04.347Z,42.73
2018-12-13T04:17:33.565Z,45.27
2018-12-13T04:20:01.889Z,47.43
2018-12-13T04:22:29.201Z,42.70
2018-12-13T04:24:57.805Z,43.40
2018-12-13T04:27:26.090Z,49.40
2018-12-13T04:29:54.289Z,50.23
2018-12-13T04:32:21.577Z,42.77
2018-12-13T04:34:49.885Z,47.00
2018-12-13T04:37:18.137Z,45.93
2018-12-13T04:39:46.377Z,47.20
2018-12-13T04:42:13.705Z,43.20
2018-12-13T04:44:41.939Z,51.67
2018-12-13T04:47:11.130Z,46.23
2018-12-13T04:49:39.416Z,42.70
2018-12-13T04:52:06.774Z,47.70
2018-12-13T04:54:36.030Z,43.53
2018-12-13T04:57:03.402Z,41.80
2018-12-13T04:59:30.754Z,43.60
2018-12-13T05:01:59.097Z,44.83
2018-12-13T05:04:26.379Z,46.93
2018-12-13T05:06:54.637Z,45.43
2018-12-13T05:09:22.900Z,40.87
2018-12-13T05:11:52.169Z,44.93
2018-12-13T05:14:20.433Z,47.07
2018-12-13T05:16:48.675Z,50.10
2018-12-13T05:19:16.989Z,46.03
2018-12-13T05:21:48.849Z,50.70
2018-12-13T05:24:17.130Z,46.20
2018-12-13T05:26:44.414Z,45.60
2018-12-13T05:29:11.744Z,49.83
2018-12-13T05:31:40.060Z,43.70
2018-12-13T05:34:07.389Z,44.03
2018-12-13T05:36:34.675Z,56.13
2018-12-13T05:39:02.008Z,47.37
2018-12-13T05:41:30.273Z,47.57
2018-12-13T05:43:58.569Z,48.10
2018-12-13T05:46:25.847Z,44.43
2018-12-13T05:48:54.571Z,48.90
2018-12-13T05:51:22.104Z,47.67
2018-12-13T05:53:49.401Z,49.80
2018-12-13T05:56:16.699Z,47.23
2018-12-13T05:58:44.026Z,48.50
2018-12-13T06:01:12.218Z,46.93
2018-12-13T06:03:40.458Z,47.23
2018-12-13T06:06:07.780Z,46.57
2018-12-13T06:08:35.095Z,46.80
2018-12-13T06:11:02.445Z,42.83
2018-12-13T06:13:31.659Z,43.33
2018-12-13T06:15:59.025Z,44.23
2018-12-13T06:18:26.344Z,48.37
2018-12-13T06:20:54.547Z,40.80
2018-12-13T06:23:22.921Z,52.63
2018-12-13T06:25:51.000Z,46.40
2018-12-13T06:28:20.199Z,46.03
2018-12-13T06:30:47.565Z,46.60
2018-12-13T06:33:16.768Z,49.30
2018-12-13T06:35:45.052Z,47.93
2018-12-13T06:38:13.339Z,45.17
2018-12-13T06:40:40.664Z,50.63
2018-12-13T06:43:08.065Z,43.20
2018-12-13T06:45:36.288Z,43.33
2018-12-13T06:48:04.488Z,45.20
2018-12-13T06:50:32.805Z,51.30
2018-12-13T06:53:03.929Z,39.37
2018-12-13T06:55:31.219Z,45.37
2018-12-13T06:57:59.445Z,94.80
2018-12-13T07:00:26.744Z,108.90
2018-12-13T07:02:54.105Z,97.23
2018-12-13T07:05:24.471Z,73.97
2018-12-13T07:07:52.714Z,55.80
2018-12-13T07:10:19.988Z,48.00
2018-12-13T07:12:47.348Z,52.73
2018-12-13T07:15:15.541Z,50.43
2018-12-13T07:17:43.365Z,55.13
2018-12-13T07:20:11.198Z,51.37
2018-12-13T07:22:38.520Z,49.80
2018-12-13T07:25:05.820Z,54.23
2018-12-13T07:27:38.085Z,47.90
2018-12-13T07:30:07.275Z,51.40
2018-12-13T07:32:34.612Z,56.57
2018-12-13T07:35:03.265Z,52.90
2018-12-13T07:37:30.575Z,54.77
2018-12-13T07:39:58.779Z,49.00
2018-12-13T07:42:26.059Z,54.50
2018-12-13T07:44:54.369Z,51.47
2018-12-13T07:47:21.650Z,49.57
2018-12-13T07:49:49.928Z,56.43
2018-12-13T07:52:18.210Z,53.77
2018-12-13T07:54:45.552Z,51.73
2018-12-13T07:57:13.769Z,55.77
2018-12-13T07:59:41.092Z,51.03
2018-12-13T08:02:09.311Z,55.40
2018-12-13T08:04:36.670Z,55.70
2018-12-13T08:07:07.877Z,50.43
2018-12-13T08:09:35.249Z,52.00
2018-12-13T08:12:02.523Z,49.93
2018-12-13T08:14:29.852Z,53.40
2018-12-13T08:16:57.140Z,64.33
2018-12-13T08:19:25.359Z,46.70
2018-12-13T08:21:54.589Z,47.53
2018-12-13T08:24:21.886Z,49.63
2018-12-13T08:26:49.184Z,46.35
2018-12-13T08:29:18.471Z,49.37
2018-12-13T08:31:47.695Z,46.90
2018-12-13T08:34:15.031Z,50.50
2018-12-13T08:36:47.487Z,50.03
2018-12-13T08:39:14.787Z,46.30
2018-12-13T08:41:42.083Z,53.13
2018-12-13T08:44:09.375Z,59.97
2018-12-13T08:46:37.625Z,51.00
2018-12-13T08:49:05.912Z,49.85
2018-12-13T08:51:34.086Z,46.03
2018-12-13T08:54:02.360Z,53.00
2018-12-13T08:56:31.566Z,47.67
2018-12-13T08:58:58.854Z,52.83
2018-12-13T09:01:27.079Z,53.87
2018-12-13T09:03:55.663Z,51.87
2018-12-13T09:06:22.964Z,47.63
2018-12-13T09:08:56.140Z,44.03
2018-12-13T09:11:24.319Z,45.17
2018-12-13T09:13:53.595Z,47.00
2018-12-13T09:16:20.919Z,49.20
2018-12-13T09:18:51.991Z,46.13
2018-12-13T09:21:19.283Z,48.93
2018-12-13T09:23:46.579Z,43.13
2018-12-13T09:26:13.872Z,39.47
2018-12-13T09:28:41.176Z,44.97
2018-12-13T09:31:08.485Z,43.27
2018-12-13T09:33:36.659Z,46.67
2018-12-13T09:36:05.916Z,50.57
2018-12-13T09:38:33.291Z,44.50
2018-12-13T09:41:00.585Z,45.87
2018-12-13T09:43:28.767Z,42.07
2018-12-13T09:45:56.981Z,42.73
2018-12-13T09:48:25.267Z,43.43
2018-12-13T09:50:53.524Z,39.20
2018-12-13T09:53:20.815Z,39.77
2018-12-13T09:55:48.125Z,42.70
2018-12-13T09:58:15.415Z,49.33
2018-12-13T10:00:42.706Z,42.67
2018-12-13T10:03:10.008Z,44.37
2018-12-13T10:05:37.307Z,44.20
2018-12-13T10:08:04.596Z,42.20
2018-12-13T10:10:32.775Z,47.70
2018-12-13T10:13:01.055Z,40.90
2018-12-13T10:15:32.107Z,39.00
2018-12-13T10:17:59.546Z,39.23
2018-12-13T10:20:27.823Z,39.93
2018-12-13T10:22:55.130Z,37.87
2018-12-13T10:25:22.419Z,38.07
2018-12-13T10:27:49.719Z,36.97
2018-12-13T10:30:17.019Z,33.53
2018-12-13T10:32:44.315Z,39.30
2018-12-13T10:35:15.945Z,37.33
2018-12-13T10:37:45.155Z,31.53
2018-12-13T10:40:12.743Z,33.83
2018-12-13T10:42:40.984Z,33.03
2018-12-13T10:45:08.279Z,34.00
2018-12-13T10:47:35.571Z,30.03
2018-12-13T10:50:04.687Z,33.27
2018-12-13T10:52:33.880Z,33.97
2018-12-13T10:55:02.163Z,35.07
2018-12-13T10:57:29.459Z,33.17
2018-12-13T10:59:56.760Z,32.53
2018-12-13T11:02:29.747Z,31.80
2018-12-13T11:04:57.951Z,32.30
2018-12-13T11:07:26.119Z,32.37
2018-12-13T11:09:54.375Z,33.97
2018-12-13T11:12:22.659Z,30.97
2018-12-13T11:14:50.857Z,37.30
2018-12-13T11:17:19.107Z,38.33
2018-12-13T11:19:46.399Z,41.20
2018-12-13T11:22:15.676Z,41.97
2018-12-13T11:24:43.932Z,36.57
2018-12-13T11:30:12.943Z,35.27
2018-12-13T11:32:40.266Z,34.00
2018-12-13T11:35:07.632Z,40.30
2018-12-13T11:37:35.829Z,34.57
2018-12-13T11:40:04.907Z,39.50
2018-12-13T11:42:37.098Z,31.30
2018-12-13T11:45:08.755Z,33.30
2018-12-13T11:47:37.022Z,40.40
2018-12-13T11:50:05.354Z,42.40
2018-12-13T11:52:33.578Z,33.37
2018-12-13T11:55:02.771Z,35.23
2018-12-13T11:57:31.991Z,32.90
2018-12-13T11:59:59.277Z,36.10
2018-12-13T12:02:26.580Z,34.77
2018-12-13T12:04:53.867Z,34.10
2018-12-13T12:07:22.113Z,34.67
2018-12-13T12:09:49.403Z,37.30
2018-12-13T12:12:17.659Z,34.80
2018-12-13T12:14:44.955Z,39.07
2018-12-13T12:17:15.331Z,39.30
2018-12-13T12:19:42.627Z,42.00
2018-12-13T12:22:10.848Z,39.60
2018-12-13T12:24:40.051Z,38.67
2018-12-13T12:27:08.574Z,45.07
2018-12-13T12:29:37.008Z,41.30
2018-12-13T12:32:06.211Z,42.80
2018-12-13T12:34:33.508Z,44.27
2018-12-13T12:37:01.731Z,44.10
2018-12-13T12:39:29.041Z,48.10
2018-12-13T12:41:58.240Z,51.57
2018-12-13T12:44:28.463Z,51.23
2018-12-13T12:46:56.682Z,51.13
2018-12-13T12:49:25.377Z,52.60
2018-12-13T12:51:54.774Z,48.27
2018-12-13T12:54:22.063Z,57.53
2018-12-13T12:56:50.296Z,48.10
2018-12-13T12:59:18.579Z,44.70
2018-12-13T13:01:45.872Z,45.87
2018-12-13T13:04:14.107Z,53.70
2018-12-13T13:06:42.374Z,44.73
2018-12-13T13:09:11.619Z,51.40
2018-12-13T13:11:39.847Z,46.83
2018-12-13T13:14:07.135Z,50.17
2018-12-13T13:16:35.327Z,42.40
2018-12-13T13:19:03.561Z,44.40
2018-12-13T13:21:30.855Z,44.60
2018-12-13T13:24:03.083Z,48.27
2018-12-13T13:26:31.359Z,45.00
2018-12-13T13:28:58.656Z,47.67
2018-12-13T13:31:26.835Z,48.60
2018-12-13T13:33:55.087Z,45.00
2018-12-13T13:36:24.363Z,49.50
2018-12-13T13:38:51.652Z,44.03
2018-12-13T13:41:19.891Z,42.33
2018-12-13T13:43:48.166Z,43.87
2018-12-13T13:46:15.459Z,41.60
2018-12-13T13:48:42.757Z,39.23
2018-12-13T13:51:10.052Z,43.80
2018-12-13T13:53:37.371Z,44.07
2018-12-13T13:56:05.562Z,42.57
2018-12-13T13:58:33.823Z,38.80
2018-12-13T14:01:01.119Z,42.60
2018-12-13T14:03:29.360Z,45.33
2018-12-13T14:05:57.639Z,41.00
2018-12-13T14:08:24.928Z,43.27
2018-12-13T14:10:53.168Z,35.13
2018-12-13T14:13:20.459Z,36.30
2018-12-13T14:15:47.755Z,42.10
2018-12-13T14:18:15.051Z,41.00
2018-12-13T14:20:43.303Z,49.37
2018-12-13T14:23:12.582Z,43.03
2018-12-13T14:25:40.777Z,40.20
2018-12-13T14:28:09.059Z,44.30
2018-12-13T14:30:37.323Z,52.73
2018-12-13T14:33:04.624Z,49.37
2018-12-13T14:35:32.795Z,50.87
2018-12-13T14:38:01.039Z,47.53
2018-12-13T14:40:29.214Z,47.07
2018-12-13T14:42:57.495Z,50.97
2018-12-13T14:45:25.775Z,46.10
2018-12-13T14:47:54.031Z,46.57
2018-12-13T14:50:23.247Z,43.10
2018-12-13T14:52:51.507Z,44.20
2018-12-13T14:55:19.784Z,46.63
2018-12-13T14:57:47.111Z,42.13
2018-12-13T15:00:14.408Z,43.90
2018-12-13T15:02:43.583Z,48.90
2018-12-13T15:05:11.092Z,44.17
2018-12-13T15:07:38.378Z,38.83
2018-12-13T15:10:10.567Z,40.33
2018-12-13T15:12:37.859Z,39.03
2018-12-13T15:15:09.883Z,43.97
2018-12-13T15:17:38.159Z,45.67
2018-12-13T15:20:05.551Z,45.77
2018-12-13T15:22:33.791Z,51.00
2018-12-13T15:25:02.070Z,44.57
2018-12-13T15:27:29.363Z,43.67
2018-12-13T15:29:56.664Z,45.90
2018-12-13T15:32:24.847Z,42.27
2018-12-13T15:34:53.227Z,40.90
2018-12-13T15:37:21.515Z,41.63
2018-12-13T15:39:48.819Z,42.97
2018-12-13T15:42:17.034Z,37.43
2018-12-13T15:44:46.111Z,43.00
2018-12-13T15:47:14.299Z,41.63
2018-12-13T15:49:43.811Z,40.03
2018-12-13T15:52:12.078Z,49.10
2018-12-13T15:54:40.363Z,37.07
2018-12-13T15:57:08.542Z,37.50
2018-12-13T15:59:36.767Z,39.13
2018-12-13T16:02:06.007Z,43.83
2018-12-13T16:04:34.491Z,42.60
2018-12-13T16:07:01.783Z,39.40
2018-12-13T16:09:30.018Z,39.53
2018-12-13T16:11:57.315Z,36.83
2018-12-13T16:14:24.611Z,37.43
2018-12-13T16:16:52.803Z,34.80
2018-12-13T16:19:22.002Z,36.83
2018-12-13T16:21:50.270Z,35.13
2018-12-13T16:24:17.567Z,33.10
2018-12-13T16:26:44.866Z,37.00
2018-12-13T16:29:12.184Z,35.87
2018-12-13T16:31:40.403Z,38.57
2018-12-13T16:34:09.602Z,40.97
2018-12-13T16:39:09.532Z,40.10
2018-12-13T16:41:37.791Z,38.57
2018-12-13T16:44:06.026Z,40.57
2018-12-13T16:46:34.268Z,32.80
2018-12-13T16:51:30.119Z,34.10
2018-12-13T16:53:58.379Z,32.05
2018-12-13T16:56:26.562Z,36.55
2018-12-13T16:58:59.032Z,33.63
2018-12-13T17:01:26.327Z,36.85
2018-12-13T17:03:53.627Z,36.05
2018-12-13T17:06:21.802Z,32.40
2018-12-13T17:08:50.111Z,36.80
2018-12-13T17:11:17.405Z,34.00
2018-12-13T17:13:45.577Z,38.93
2018-12-13T17:16:12.871Z,28.67
2018-12-13T17:18:40.163Z,28.63
2018-12-13T17:21:09.422Z,28.97
2018-12-13T17:23:37.695Z,33.00
2018-12-13T17:26:04.999Z,27.00
2018-12-13T17:28:32.283Z,27.93
2018-12-13T17:30:59.579Z,29.37
2018-12-13T17:33:27.834Z,27.93
2018-12-13T17:35:56.103Z,26.77
2018-12-13T17:40:51.022Z,30.80
2018-12-13T17:43:19.294Z,27.20
2018-12-13T17:48:15.138Z,22.63
2018-12-13T17:55:37.945Z,20.40
2018-12-13T17:58:06.183Z,22.70
2018-12-13T18:00:34.363Z,21.25
2018-12-13T18:03:02.635Z,24.60
2018-12-13T18:05:30.923Z,21.85
2018-12-13T18:08:03.787Z,23.63
2018-12-13T18:10:32.002Z,26.80
2018-12-13T18:13:00.177Z,25.43
2018-12-13T18:15:29.447Z,25.30
2018-12-13T18:18:00.065Z,27.27
2018-12-13T18:20:27.351Z,26.13
2018-12-13T18:22:55.611Z,28.07
2018-12-13T18:25:22.907Z,26.00
2018-12-13T18:27:50.215Z,28.00
2018-12-13T18:30:17.511Z,25.33
2018-12-13T18:32:44.802Z,27.37
2018-12-13T18:35:12.094Z,25.07
2018-12-13T18:40:06.208Z,28.30
2018-12-13T18:45:01.147Z,30.90
2018-12-13T18:47:29.676Z,29.25
2018-12-13T18:49:57.943Z,28.35
2018-12-13T18:54:54.907Z,32.50
2018-12-13T18:57:22.204Z,31.20
2018-12-13T18:59:49.530Z,28.75
2018-12-13T19:07:11.270Z,32.20
2018-12-13T19:09:40.467Z,23.70
2018-12-13T19:12:08.754Z,25.70
2018-12-13T19:17:03.962Z,26.10
2018-12-13T19:19:31.252Z,27.90
2018-12-13T19:24:28.079Z,30.50
2018-12-13T19:29:23.002Z,29.90
2018-12-13T19:34:17.007Z,29.80
2018-12-13T19:36:46.290Z,28.10
2018-12-13T19:53:54.968Z,35.87
2018-12-13T19:58:51.859Z,35.40
2018-12-13T20:01:20.146Z,35.15
2018-12-13T20:03:47.439Z,30.45
2018-12-13T20:06:15.675Z,36.30
2018-12-13T20:08:43.953Z,38.70
2018-12-13T20:11:14.891Z,36.80
2018-12-13T20:13:42.183Z,34.70
2018-12-13T20:18:36.201Z,37.40
2018-12-13T20:21:03.513Z,36.73
2018-12-13T20:23:31.670Z,32.95
2018-12-13T20:25:58.967Z,32.50
2018-12-13T20:28:27.189Z,36.20
2018-12-13T20:30:54.518Z,38.20
2018-12-13T20:33:22.712Z,37.63
2018-12-13T20:35:50.011Z,36.90
2018-12-13T20:38:17.306Z,37.97
2018-12-13T20:40:45.527Z,46.00
2018-12-13T20:43:12.844Z,39.70
2018-12-13T20:45:41.019Z,38.20
2018-12-13T20:48:09.199Z,41.20
2018-12-13T20:50:37.489Z,41.90
2018-12-13T20:53:04.783Z,44.07
2018-12-13T20:55:32.082Z,45.90
2018-12-13T20:58:00.395Z,46.30
2018-12-13T21:00:29.656Z,44.13
2018-12-13T21:02:56.950Z,43.80
2018-12-13T21:05:25.196Z,39.70
2018-12-13T21:07:54.402Z,41.63
2018-12-13T21:10:22.658Z,46.30
2018-12-13T21:12:49.959Z,47.30
2018-12-13T21:15:17.259Z,42.27
2018-12-13T21:17:44.568Z,54.33
2018-12-13T21:20:12.802Z,62.57
2018-12-13T21:22:42.003Z,65.33
2018-12-13T21:25:09.294Z,66.53
2018-12-13T21:27:37.524Z,61.77
2018-12-13T21:30:05.319Z,56.50
2018-12-13T21:32:32.623Z,51.10
2018-12-13T21:34:59.928Z,55.07
2018-12-13T21:37:28.166Z,47.23
2018-12-13T21:39:55.467Z,50.87
2018-12-13T21:42:23.703Z,46.43
2018-12-13T21:44:51.000Z,47.97
2018-12-13T21:47:18.298Z,46.10
2018-12-13T21:49:45.591Z,44.23
2018-12-13T21:52:13.771Z,41.57
2018-12-13T21:54:42.055Z,46.53
2018-12-13T21:57:10.615Z,44.85
2018-12-13T21:59:39.803Z,46.30
2018-12-13T22:02:07.091Z,45.07
2018-12-13T22:04:35.323Z,42.37
2018-12-13T22:07:02.687Z,44.07
2018-12-13T22:09:30.006Z,50.33
2018-12-13T22:14:25.019Z,45.00
2018-12-13T22:21:46.685Z,45.85
2018-12-13T22:24:14.005Z,42.63
2018-12-13T22:26:41.334Z,40.80
2018-12-13T22:29:09.658Z,39.05
2018-12-13T22:31:36.973Z,36.90
2018-12-13T22:34:05.195Z,42.60
2018-12-13T22:39:01.160Z,41.80
2018-12-13T22:41:28.472Z,36.70
2018-12-13T22:43:55.755Z,40.17
2018-12-13T22:46:24.049Z,39.63
2018-12-13T22:48:52.260Z,38.93
2018-12-13T22:51:19.550Z,41.73
2018-12-13T22:53:48.800Z,42.30
2018-12-13T22:56:16.112Z,43.10
2018-12-13T22:58:43.411Z,33.50
2018-12-13T23:01:11.683Z,40.40
2018-12-13T23:03:39.949Z,32.13
2018-12-13T23:06:07.313Z,33.73
2018-12-13T23:08:34.657Z,37.00
2018-12-13T23:11:02.236Z,33.30
2018-12-13T23:13:30.505Z,37.87
2018-12-13T23:15:57.925Z,32.77
2018-12-13T23:18:25.275Z,35.77
2018-12-13T23:20:53.533Z,36.33
2018-12-13T23:23:21.802Z,34.50
2018-12-13T23:25:51.149Z,34.15
2018-12-13T23:28:18.462Z,28.80
2018-12-13T23:30:45.808Z,30.63
2018-12-13T23:33:14.061Z,27.80
2018-12-13T23:38:09.961Z,32.43
2018-12-13T23:40:38.259Z,30.90
2018-12-13T23:43:07.539Z,37.80
2018-12-13T23:45:36.764Z,31.90
2018-12-13T23:48:05.014Z,30.40
2018-12-13T23:50:32.340Z,30.93
2018-12-13T23:52:59.631Z,28.80
